sensor_id;sensor_type;location;lat;lon;timestamp;pressure;altitude;pressure_sealevel;temperature;humidity
35435;BME280;21556;55.782;37.528;2023-07-09T00:02:21;99474.94;;;20.47;100.00
35435;BME280;21556;55.782;37.528;2023-07-09T00:04:47;99470.13;;;20.61;100.00
35435;BME280;21556;55.782;37.528;2023-07-09T00:07:31;99462.00;;;20.65;100.00
35435;BME280;21556;55.782;37.528;2023-07-09T00:09:57;99458.81;;;20.53;100.00
35435;BME280;21556;55.782;37.528;2023-07-09T00:12:24;99461.78;;;20.40;100.00
35435;BME280;21556;55.782;37.528;2023-07-09T00:14:50;99466.56;;;20.28;100.00
35435;BME280;21556;55.782;37.528;2023-07-09T00:17:31;99466.56;;;20.28;100.00
35435;BME280;21556;55.782;37.528;2023-07-09T00:19:59;99459.47;;;20.28;100.00
35435;BME280;21556;55.782;37.528;2023-07-09T00:22:25;99461.97;;;20.34;100.00
35435;BME280;21556;55.782;37.528;2023-07-09T00:24:54;99456.75;;;20.30;100.00
35435;BME280;21556;55.782;37.528;2023-07-09T00:27:26;99450.47;;;20.32;100.00
35435;BME280;21556;55.782;37.528;2023-07-09T00:29:53;99447.72;;;20.35;100.00
35435;BME280;21556;55.782;37.528;2023-07-09T00:32:20;99451.03;;;20.11;100.00
35435;BME280;21556;55.782;37.528;2023-07-09T00:34:47;99445.41;;;20.23;100.00
35435;BME280;21556;55.782;37.528;2023-07-09T00:37:19;99445.13;;;20.32;100.00
35435;BME280;21556;55.782;37.528;2023-07-09T00:39:47;99444.72;;;20.15;100.00
35435;BME280;21556;55.782;37.528;2023-07-09T00:42:16;99438.63;;;20.10;100.00
35435;BME280;21556;55.782;37.528;2023-07-09T00:44:45;99438.31;;;20.22;100.00
35435;BME280;21556;55.782;37.528;2023-07-09T00:47:31;99435.75;;;20.19;100.00
35435;BME280;21556;55.782;37.528;2023-07-09T00:50:06;99435.81;;;20.16;100.00
35435;BME280;21556;55.782;37.528;2023-07-09T00:52:42;99430.72;;;20.08;100.00
35435;BME280;21556;55.782;37.528;2023-07-09T00:55:14;99428.34;;;19.96;100.00
35435;BME280;21556;55.782;37.528;2023-07-09T00:57:43;99424.28;;;19.83;100.00
35435;BME280;21556;55.782;37.528;2023-07-09T01:00:13;99426.66;;;19.93;100.00
35435;BME280;21556;55.782;37.528;2023-07-09T01:02:46;99419.44;;;19.97;100.00
35435;BME280;21556;55.782;37.528;2023-07-09T01:05:15;99420.63;;;19.85;100.00
35435;BME280;21556;55.782;37.528;2023-07-09T01:07:43;99412.84;;;19.78;100.00
35435;BME280;21556;55.782;37.528;2023-07-09T01:10:13;99419.88;;;19.80;100.00
35435;BME280;21556;55.782;37.528;2023-07-09T01:12:40;99407.22;;;19.90;100.00
35435;BME280;21556;55.782;37.528;2023-07-09T01:15:06;99409.31;;;19.77;100.00
35435;BME280;21556;55.782;37.528;2023-07-09T01:17:33;99423.50;;;19.78;100.00
35435;BME280;21556;55.782;37.528;2023-07-09T01:19:59;99418.97;;;19.81;100.00
35435;BME280;21556;55.782;37.528;2023-07-09T01:22:25;99425.44;;;19.71;100.00
35435;BME280;21556;55.782;37.528;2023-07-09T01:25:01;99413.91;;;19.72;100.00
35435;BME280;21556;55.782;37.528;2023-07-09T01:27:43;99407.78;;;19.68;100.00
35435;BME280;21556;55.782;37.528;2023-07-09T01:30:17;99415.75;;;19.68;100.00
35435;BME280;21556;55.782;37.528;2023-07-09T01:32:50;99411.53;;;19.58;100.00
35435;BME280;21556;55.782;37.528;2023-07-09T01:35:19;99423.97;;;19.58;100.00
35435;BME280;21556;55.782;37.528;2023-07-09T01:37:47;99423.97;;;19.58;100.00
35435;BME280;21556;55.782;37.528;2023-07-09T01:40:16;99416.63;;;19.69;100.00
35435;BME280;21556;55.782;37.528;2023-07-09T01:42:42;99417.44;;;19.71;100.00
35435;BME280;21556;55.782;37.528;2023-07-09T01:45:09;99415.94;;;19.59;100.00
35435;BME280;21556;55.782;37.528;2023-07-09T01:47:39;99414.16;;;19.60;100.00
35435;BME280;21556;55.782;37.528;2023-07-09T01:50:06;99417.19;;;19.44;100.00
35435;BME280;21556;55.782;37.528;2023-07-09T01:52:33;99420.06;;;19.35;100.00
35435;BME280;21556;55.782;37.528;2023-07-09T01:55:01;99418.94;;;19.45;100.00
35435;BME280;21556;55.782;37.528;2023-07-09T01:57:32;99412.72;;;19.46;100.00
35435;BME280;21556;55.782;37.528;2023-07-09T02:00:07;99410.94;;;19.45;100.00
35435;BME280;21556;55.782;37.528;2023-07-09T02:02:44;99410.19;;;19.40;100.00
35435;BME280;21556;55.782;37.528;2023-07-09T02:05:14;99412.91;;;19.37;100.00
35435;BME280;21556;55.782;37.528;2023-07-09T02:07:41;99415.28;;;19.49;100.00
35435;BME280;21556;55.782;37.528;2023-07-09T02:10:08;99415.53;;;19.39;100.00
35435;BME280;21556;55.782;37.528;2023-07-09T02:12:34;99411.81;;;19.46;100.00
35435;BME280;21556;55.782;37.528;2023-07-09T02:15:01;99408.19;;;19.50;100.00
35435;BME280;21556;55.782;37.528;2023-07-09T02:17:32;99405.56;;;19.48;100.00
35435;BME280;21556;55.782;37.528;2023-07-09T02:19:58;99412.78;;;19.43;100.00
35435;BME280;21556;55.782;37.528;2023-07-09T02:22:24;99402.97;;;19.45;100.00
35435;BME280;21556;55.782;37.528;2023-07-09T02:24:50;99404.69;;;19.48;100.00
35435;BME280;21556;55.782;37.528;2023-07-09T02:27:19;99397.13;;;19.68;100.00
35435;BME280;21556;55.782;37.528;2023-07-09T02:29:45;99397.28;;;19.61;100.00
35435;BME280;21556;55.782;37.528;2023-07-09T02:32:17;99403.69;;;19.54;100.00
35435;BME280;21556;55.782;37.528;2023-07-09T02:34:47;99395.59;;;19.57;100.00
35435;BME280;21556;55.782;37.528;2023-07-09T02:37:16;99410.38;;;19.70;100.00
35435;BME280;21556;55.782;37.528;2023-07-09T02:39:43;99398.06;;;19.66;100.00
35435;BME280;21556;55.782;37.528;2023-07-09T02:42:10;99395.34;;;19.69;100.00
35435;BME280;21556;55.782;37.528;2023-07-09T02:44:38;99398.53;;;19.83;100.00
35435;BME280;21556;55.782;37.528;2023-07-09T02:47:04;99398.75;;;19.74;100.00
35435;BME280;21556;55.782;37.528;2023-07-09T02:49:30;99396.00;;;19.77;100.00
35435;BME280;21556;55.782;37.528;2023-07-09T02:51:57;99396.66;;;19.87;100.00
35435;BME280;21556;55.782;37.528;2023-07-09T02:54:23;99403.44;;;19.99;100.00
35435;BME280;21556;55.782;37.528;2023-07-09T02:56:48;99402.69;;;19.93;100.00
35435;BME280;21556;55.782;37.528;2023-07-09T02:59:14;99397.16;;;20.01;100.00
35435;BME280;21556;55.782;37.528;2023-07-09T03:01:40;99401.78;;;19.94;100.00
35435;BME280;21556;55.782;37.528;2023-07-09T03:04:06;99399.78;;;20.03;100.00
35435;BME280;21556;55.782;37.528;2023-07-09T03:06:35;99400.78;;;19.99;100.00
35435;BME280;21556;55.782;37.528;2023-07-09T03:09:05;99402.38;;;20.04;100.00
35435;BME280;21556;55.782;37.528;2023-07-09T03:11:33;99393.13;;;20.19;100.00
35435;BME280;21556;55.782;37.528;2023-07-09T03:14:01;99397.69;;;20.14;100.00
35435;BME280;21556;55.782;37.528;2023-07-09T03:16:28;99395.75;;;20.20;100.00
35435;BME280;21556;55.782;37.528;2023-07-09T03:18:55;99391.25;;;20.23;100.00
35435;BME280;21556;55.782;37.528;2023-07-09T03:21:22;99392.78;;;20.31;100.00
35435;BME280;21556;55.782;37.528;2023-07-09T03:23:49;99387.41;;;20.33;100.00
35435;BME280;21556;55.782;37.528;2023-07-09T03:26:14;99386.19;;;20.76;100.00
35435;BME280;21556;55.782;37.528;2023-07-09T03:28:41;99390.59;;;20.77;100.00
35435;BME280;21556;55.782;37.528;2023-07-09T03:31:07;99385.16;;;20.81;100.00
35435;BME280;21556;55.782;37.528;2023-07-09T03:33:33;99375.13;;;20.89;100.00
35435;BME280;21556;55.782;37.528;2023-07-09T03:35:59;99383.34;;;20.82;100.00
35435;BME280;21556;55.782;37.528;2023-07-09T03:38:25;99364.69;;;20.82;100.00
35435;BME280;21556;55.782;37.528;2023-07-09T03:40:54;99382.25;;;20.89;100.00
35435;BME280;21556;55.782;37.528;2023-07-09T03:43:21;99376.94;;;21.17;100.00
35435;BME280;21556;55.782;37.528;2023-07-09T03:45:48;99375.81;;;21.24;100.00
35435;BME280;21556;55.782;37.528;2023-07-09T03:48:16;99373.97;;;21.26;100.00
35435;BME280;21556;55.782;37.528;2023-07-09T03:50:44;99379.47;;;21.20;100.00
35435;BME280;21556;55.782;37.528;2023-07-09T03:53:10;99377.94;;;21.41;100.00
35435;BME280;21556;55.782;37.528;2023-07-09T03:55:36;99378.22;;;21.33;100.00
35435;BME280;21556;55.782;37.528;2023-07-09T03:58:03;99373.09;;;21.54;100.00
35435;BME280;21556;55.782;37.528;2023-07-09T04:00:30;99370.28;;;21.58;100.00
35435;BME280;21556;55.782;37.528;2023-07-09T04:02:56;99372.75;;;21.65;100.00
35435;BME280;21556;55.782;37.528;2023-07-09T04:05:26;99369.72;;;21.75;100.00
35435;BME280;21556;55.782;37.528;2023-07-09T04:07:52;99364.13;;;21.81;100.00
35435;BME280;21556;55.782;37.528;2023-07-09T04:10:19;99369.03;;;21.69;100.00
35435;BME280;21556;55.782;37.528;2023-07-09T04:12:45;99368.03;;;21.71;100.00
35435;BME280;21556;55.782;37.528;2023-07-09T04:15:12;99366.88;;;21.80;100.00
35435;BME280;21556;55.782;37.528;2023-07-09T04:17:39;99374.41;;;21.94;100.00
35435;BME280;21556;55.782;37.528;2023-07-09T04:20:07;99377.34;;;21.86;100.00
35435;BME280;21556;55.782;37.528;2023-07-09T04:22:33;99374.72;;;21.84;100.00
35435;BME280;21556;55.782;37.528;2023-07-09T04:27:26;99368.50;;;21.84;100.00
35435;BME280;21556;55.782;37.528;2023-07-09T04:29:54;99370.84;;;21.93;100.00
35435;BME280;21556;55.782;37.528;2023-07-09T04:32:20;99369.66;;;22.02;100.00
35435;BME280;21556;55.782;37.528;2023-07-09T04:34:47;99359.56;;;22.10;100.00
35435;BME280;21556;55.782;37.528;2023-07-09T04:37:13;99360.31;;;22.15;100.00
35435;BME280;21556;55.782;37.528;2023-07-09T04:39:39;99359.00;;;22.00;100.00
35435;BME280;21556;55.782;37.528;2023-07-09T04:42:11;99355.06;;;22.12;100.00
35435;BME280;21556;55.782;37.528;2023-07-09T04:44:37;99350.34;;;22.20;100.00
35435;BME280;21556;55.782;37.528;2023-07-09T04:47:03;99354.34;;;22.07;100.00
35435;BME280;21556;55.782;37.528;2023-07-09T04:49:29;99348.50;;;22.22;100.00
35435;BME280;21556;55.782;37.528;2023-07-09T04:51:54;99343.38;;;22.40;100.00
35435;BME280;21556;55.782;37.528;2023-07-09T04:54:23;99347.91;;;22.38;100.00
35435;BME280;21556;55.782;37.528;2023-07-09T04:56:49;99339.69;;;22.66;100.00
35435;BME280;21556;55.782;37.528;2023-07-09T04:59:15;99332.97;;;22.79;100.00
35435;BME280;21556;55.782;37.528;2023-07-09T05:01:40;99344.06;;;22.68;100.00
35435;BME280;21556;55.782;37.528;2023-07-09T05:04:06;99336.63;;;22.76;100.00
35435;BME280;21556;55.782;37.528;2023-07-09T05:06:33;99334.19;;;22.94;100.00
35435;BME280;21556;55.782;37.528;2023-07-09T05:08:59;99334.91;;;22.99;100.00
35435;BME280;21556;55.782;37.528;2023-07-09T05:11:25;99339.13;;;23.04;100.00
35435;BME280;21556;55.782;37.528;2023-07-09T05:13:51;99333.72;;;23.06;100.00
35435;BME280;21556;55.782;37.528;2023-07-09T05:16:17;99332.38;;;23.16;100.00
35435;BME280;21556;55.782;37.528;2023-07-09T05:18:45;99333.56;;;23.09;100.00
35435;BME280;21556;55.782;37.528;2023-07-09T05:21:11;99334.69;;;23.03;100.00
35435;BME280;21556;55.782;37.528;2023-07-09T05:23:37;99331.59;;;23.14;100.00
35435;BME280;21556;55.782;37.528;2023-07-09T05:26:04;99326.03;;;23.19;100.00
35435;BME280;21556;55.782;37.528;2023-07-09T05:28:30;99325.59;;;23.29;100.00
35435;BME280;21556;55.782;37.528;2023-07-09T05:30:59;99319.19;;;23.34;100.00
35435;BME280;21556;55.782;37.528;2023-07-09T05:33:25;99315.28;;;22.98;100.00
35435;BME280;21556;55.782;37.528;2023-07-09T05:35:51;99321.44;;;23.22;100.00
35435;BME280;21556;55.782;37.528;2023-07-09T05:38:17;99330.66;;;23.15;100.00
35435;BME280;21556;55.782;37.528;2023-07-09T05:40:43;99325.41;;;23.34;100.00
35435;BME280;21556;55.782;37.528;2023-07-09T05:43:10;99327.84;;;23.40;100.00
35435;BME280;21556;55.782;37.528;2023-07-09T05:45:35;99327.19;;;23.35;100.00
35435;BME280;21556;55.782;37.528;2023-07-09T05:48:03;99332.88;;;23.48;100.00
35435;BME280;21556;55.782;37.528;2023-07-09T05:50:29;99331.56;;;23.58;100.00
35435;BME280;21556;55.782;37.528;2023-07-09T05:52:58;99326.72;;;23.68;100.00
35435;BME280;21556;55.782;37.528;2023-07-09T05:55:23;99326.50;;;23.72;100.00
35435;BME280;21556;55.782;37.528;2023-07-09T05:57:49;99326.72;;;23.66;100.00
35435;BME280;21556;55.782;37.528;2023-07-09T06:00:15;99321.75;;;23.79;100.00
35435;BME280;21556;55.782;37.528;2023-07-09T06:02:43;99325.50;;;23.95;100.00
35435;BME280;21556;55.782;37.528;2023-07-09T06:05:09;99320.81;;;24.00;100.00
35435;BME280;21556;55.782;37.528;2023-07-09T06:07:38;99327.34;;;24.14;100.00
35435;BME280;21556;55.782;37.528;2023-07-09T06:10:05;99323.56;;;23.99;100.00
35435;BME280;21556;55.782;37.528;2023-07-09T06:12:31;99323.56;;;23.78;100.00
35435;BME280;21556;55.782;37.528;2023-07-09T06:14:57;99316.16;;;24.45;100.00
35435;BME280;21556;55.782;37.528;2023-07-09T06:17:23;99318.25;;;24.76;100.00
35435;BME280;21556;55.782;37.528;2023-07-09T06:19:49;99307.34;;;24.98;100.00
35435;BME280;21556;55.782;37.528;2023-07-09T06:22:15;99302.09;;;24.78;100.00
35435;BME280;21556;55.782;37.528;2023-07-09T06:24:40;99305.34;;;24.84;100.00
35435;BME280;21556;55.782;37.528;2023-07-09T06:27:09;99313.59;;;24.80;100.00
35435;BME280;21556;55.782;37.528;2023-07-09T06:29:35;99305.84;;;24.92;100.00
35435;BME280;21556;55.782;37.528;2023-07-09T06:32:01;99301.78;;;25.03;100.00
35435;BME280;21556;55.782;37.528;2023-07-09T06:34:27;99304.78;;;25.33;100.00
35435;BME280;21556;55.782;37.528;2023-07-09T06:36:53;99299.44;;;25.50;100.00
35435;BME280;21556;55.782;37.528;2023-07-09T06:39:19;99300.53;;;25.46;94.40
35435;BME280;21556;55.782;37.528;2023-07-09T06:41:45;99304.63;;;25.70;92.15
35435;BME280;21556;55.782;37.528;2023-07-09T06:44:31;99291.13;;;25.55;94.88
35435;BME280;21556;55.782;37.528;2023-07-09T06:49:52;99293.88;;;25.70;96.76
35435;BME280;21556;55.782;37.528;2023-07-09T06:52:18;99289.78;;;25.98;88.10
35435;BME280;21556;55.782;37.528;2023-07-09T06:54:44;99286.81;;;25.87;90.89
35435;BME280;21556;55.782;37.528;2023-07-09T06:57:09;99286.72;;;26.22;89.14
35435;BME280;21556;55.782;37.528;2023-07-09T06:59:35;99282.81;;;26.45;79.74
35435;BME280;21556;55.782;37.528;2023-07-09T07:02:01;99280.94;;;26.62;72.49
35435;BME280;21556;55.782;37.528;2023-07-09T07:04:27;99273.72;;;26.79;77.29
35435;BME280;21556;55.782;37.528;2023-07-09T07:06:53;99281.81;;;26.63;80.65
35435;BME280;21556;55.782;37.528;2023-07-09T07:09:21;99268.78;;;26.71;85.24
35435;BME280;21556;55.782;37.528;2023-07-09T07:11:47;99267.84;;;26.88;79.97
35435;BME280;21556;55.782;37.528;2023-07-09T07:14:13;99263.13;;;27.07;74.91
35435;BME280;21556;55.782;37.528;2023-07-09T07:16:38;99261.06;;;26.65;73.75
35435;BME280;21556;55.782;37.528;2023-07-09T07:19:04;99266.63;;;26.78;65.33
35435;BME280;21556;55.782;37.528;2023-07-09T07:21:31;99260.06;;;26.34;68.92
35435;BME280;21556;55.782;37.528;2023-07-09T07:23:57;99262.72;;;26.52;71.79
35435;BME280;21556;55.782;37.528;2023-07-09T07:26:23;99261.16;;;26.63;72.57
35435;BME280;21556;55.782;37.528;2023-07-09T07:28:49;99258.81;;;26.24;70.57
35435;BME280;21556;55.782;37.528;2023-07-09T07:31:16;99257.94;;;26.88;62.15
35435;BME280;21556;55.782;37.528;2023-07-09T07:33:42;99247.34;;;26.54;67.93
35435;BME280;21556;55.782;37.528;2023-07-09T07:36:09;99258.38;;;27.43;65.41
35435;BME280;21556;55.782;37.528;2023-07-09T07:38:35;99247.97;;;28.40;57.16
35435;BME280;21556;55.782;37.528;2023-07-09T07:41:01;99247.38;;;29.17;53.27
35435;BME280;21556;55.782;37.528;2023-07-09T07:43:27;99246.94;;;28.96;49.41
35435;BME280;21556;55.782;37.528;2023-07-09T07:45:54;99245.81;;;29.80;47.52
35435;BME280;21556;55.782;37.528;2023-07-09T07:48:19;99235.56;;;30.97;44.82
35435;BME280;21556;55.782;37.528;2023-07-09T07:50:46;99239.56;;;30.80;44.52
35435;BME280;21556;55.782;37.528;2023-07-09T07:53:14;99234.00;;;31.30;42.68
35435;BME280;21556;55.782;37.528;2023-07-09T07:55:40;99238.75;;;31.39;44.09
35435;BME280;21556;55.782;37.528;2023-07-09T07:58:12;99227.88;;;31.63;41.36
35435;BME280;21556;55.782;37.528;2023-07-09T08:00:39;99233.72;;;31.46;36.83
35435;BME280;21556;55.782;37.528;2023-07-09T08:03:05;99217.56;;;31.09;39.03
35435;BME280;21556;55.782;37.528;2023-07-09T08:05:31;99228.41;;;30.72;41.73
35435;BME280;21556;55.782;37.528;2023-07-09T08:07:57;99227.34;;;30.25;44.43
35435;BME280;21556;55.782;37.528;2023-07-09T08:10:23;99218.00;;;30.29;41.97
35435;BME280;21556;55.782;37.528;2023-07-09T08:12:48;99224.66;;;30.49;42.38
35435;BME280;21556;55.782;37.528;2023-07-09T08:15:14;99225.72;;;30.59;46.13
35435;BME280;21556;55.782;37.528;2023-07-09T08:17:40;99216.69;;;31.32;40.78
35435;BME280;21556;55.782;37.528;2023-07-09T08:20:07;99201.41;;;32.56;36.13
35435;BME280;21556;55.782;37.528;2023-07-09T08:22:33;99205.16;;;32.44;38.11
35435;BME280;21556;55.782;37.528;2023-07-09T08:24:59;99208.34;;;32.16;36.50
35435;BME280;21556;55.782;37.528;2023-07-09T08:27:24;99204.06;;;32.90;34.68
35435;BME280;21556;55.782;37.528;2023-07-09T08:29:50;99209.78;;;31.75;36.70
35435;BME280;21556;55.782;37.528;2023-07-09T08:32:16;99203.91;;;32.15;36.25
35435;BME280;21556;55.782;37.528;2023-07-09T08:34:42;99206.13;;;31.87;36.23
35435;BME280;21556;55.782;37.528;2023-07-09T08:37:09;99208.44;;;30.49;41.11
35435;BME280;21556;55.782;37.528;2023-07-09T08:39:35;99211.88;;;29.36;47.06
35435;BME280;21556;55.782;37.528;2023-07-09T08:42:04;99204.25;;;29.16;46.53
35435;BME280;21556;55.782;37.528;2023-07-09T08:44:50;99210.28;;;28.38;55.02
35435;BME280;21556;55.782;37.528;2023-07-09T08:47:27;99202.00;;;27.98;55.37
35435;BME280;21556;55.782;37.528;2023-07-09T08:50:00;99210.63;;;27.60;60.14
35435;BME280;21556;55.782;37.528;2023-07-09T08:52:40;99203.59;;;28.85;51.52
35435;BME280;21556;55.782;37.528;2023-07-09T08:55:11;99196.44;;;29.38;49.58
35435;BME280;21556;55.782;37.528;2023-07-09T08:57:40;99193.34;;;29.70;49.20
35435;BME280;21556;55.782;37.528;2023-07-09T09:00:15;99200.59;;;28.90;50.94
35435;BME280;21556;55.782;37.528;2023-07-09T09:02:50;99188.69;;;28.24;59.58
35435;BME280;21556;55.782;37.528;2023-07-09T09:05:21;99199.31;;;27.84;60.46
35435;BME280;21556;55.782;37.528;2023-07-09T09:08:02;99187.53;;;27.85;51.18
35435;BME280;21556;55.782;37.528;2023-07-09T09:10:33;99176.25;;;28.50;43.51
35435;BME280;21556;55.782;37.528;2023-07-09T09:13:11;99172.03;;;29.53;43.87
35435;BME280;21556;55.782;37.528;2023-07-09T09:15:45;99166.34;;;28.90;44.49
35435;BME280;21556;55.782;37.528;2023-07-09T09:18:20;99164.06;;;28.01;49.46
35435;BME280;21556;55.782;37.528;2023-07-09T09:23:46;99155.63;;;31.51;39.97
35435;BME280;21556;55.782;37.528;2023-07-09T09:26:21;99143.97;;;31.95;37.72
35435;BME280;21556;55.782;37.528;2023-07-09T09:28:49;99142.59;;;32.23;38.35
35435;BME280;21556;55.782;37.528;2023-07-09T09:31:16;99134.59;;;32.22;37.05
35435;BME280;21556;55.782;37.528;2023-07-09T09:33:44;99149.69;;;31.10;37.01
35435;BME280;21556;55.782;37.528;2023-07-09T09:36:24;99139.75;;;29.64;41.48
35435;BME280;21556;55.782;37.528;2023-07-09T09:38:51;99153.31;;;29.37;46.96
35435;BME280;21556;55.782;37.528;2023-07-09T09:41:24;99154.72;;;28.63;48.95
35435;BME280;21556;55.782;37.528;2023-07-09T09:43:54;99163.38;;;29.47;48.15
35435;BME280;21556;55.782;37.528;2023-07-09T09:46:23;99145.56;;;29.83;46.60
35435;BME280;21556;55.782;37.528;2023-07-09T09:48:50;99146.34;;;30.35;45.38
35435;BME280;21556;55.782;37.528;2023-07-09T09:51:19;99137.44;;;29.96;44.15
35435;BME280;21556;55.782;37.528;2023-07-09T09:53:51;99147.91;;;30.87;44.40
35435;BME280;21556;55.782;37.528;2023-07-09T09:56:29;99142.03;;;30.56;42.46
35435;BME280;21556;55.782;37.528;2023-07-09T09:58:56;99143.31;;;31.23;43.16
35435;BME280;21556;55.782;37.528;2023-07-09T10:01:34;99137.84;;;31.35;41.92
35435;BME280;21556;55.782;37.528;2023-07-09T10:04:03;99133.09;;;30.80;41.98
35435;BME280;21556;55.782;37.528;2023-07-09T10:06:38;99128.50;;;30.32;41.55
35435;BME280;21556;55.782;37.528;2023-07-09T10:09:14;99129.75;;;30.76;42.48
35435;BME280;21556;55.782;37.528;2023-07-09T10:11:46;99128.81;;;29.78;46.56
35435;BME280;21556;55.782;37.528;2023-07-09T10:16:57;99128.44;;;29.06;48.87
35435;BME280;21556;55.782;37.528;2023-07-09T10:28:05;99114.84;;;31.52;40.49
35435;BME280;21556;55.782;37.528;2023-07-09T10:30:50;99115.94;;;32.40;38.24
35435;BME280;21556;55.782;37.528;2023-07-09T10:33:26;99104.50;;;31.46;39.37
35435;BME280;21556;55.782;37.528;2023-07-09T10:41:11;99116.38;;;28.97;52.62
35435;BME280;21556;55.782;37.528;2023-07-09T10:43:51;99115.91;;;29.18;49.90
35435;BME280;21556;55.782;37.528;2023-07-09T10:46:24;99117.97;;;29.27;50.25
35435;BME280;21556;55.782;37.528;2023-07-09T10:48:53;99112.72;;;30.13;45.95
35435;BME280;21556;55.782;37.528;2023-07-09T10:56:39;99110.41;;;31.05;42.72
35435;BME280;21556;55.782;37.528;2023-07-09T10:59:26;99112.91;;;31.19;42.85
35435;BME280;21556;55.782;37.528;2023-07-09T11:05:05;99108.81;;;31.49;40.72
35435;BME280;21556;55.782;37.528;2023-07-09T11:07:58;99108.41;;;31.31;41.36
35435;BME280;21556;55.782;37.528;2023-07-09T11:10:32;99106.97;;;31.14;38.98
35435;BME280;21556;55.782;37.528;2023-07-09T11:13:15;99103.34;;;30.19;41.87
35435;BME280;21556;55.782;37.528;2023-07-09T11:15:46;99098.31;;;31.44;39.93
35435;BME280;21556;55.782;37.528;2023-07-09T11:18:21;99106.84;;;31.15;40.95
35435;BME280;21556;55.782;37.528;2023-07-09T11:20:55;99098.53;;;30.83;40.37
35435;BME280;21556;55.782;37.528;2023-07-09T11:23:24;99096.63;;;30.12;42.19
35435;BME280;21556;55.782;37.528;2023-07-09T11:26:11;99099.03;;;30.04;44.08
35435;BME280;21556;55.782;37.528;2023-07-09T11:28:45;99093.03;;;29.49;44.29
35435;BME280;21556;55.782;37.528;2023-07-09T11:31:36;99094.97;;;29.47;46.29
35435;BME280;21556;55.782;37.528;2023-07-09T11:34:09;99086.00;;;29.72;46.69
35435;BME280;21556;55.782;37.528;2023-07-09T11:41:48;99091.94;;;29.13;51.31
35435;BME280;21556;55.782;37.528;2023-07-09T11:44:21;99082.53;;;29.44;47.56
35435;BME280;21556;55.782;37.528;2023-07-09T11:52:20;99083.97;;;28.85;55.15
35435;BME280;21556;55.782;37.528;2023-07-09T11:54:49;99082.13;;;28.85;52.96
35435;BME280;21556;55.782;37.528;2023-07-09T11:57:17;99083.56;;;28.91;57.80
35435;BME280;21556;55.782;37.528;2023-07-09T11:59:44;99090.34;;;28.44;59.61
35435;BME280;21556;55.782;37.528;2023-07-09T12:02:16;99081.53;;;28.13;58.23
35435;BME280;21556;55.782;37.528;2023-07-09T12:04:43;99086.13;;;28.40;57.64
35435;BME280;21556;55.782;37.528;2023-07-09T12:07:13;99082.97;;;28.73;54.55
35435;BME280;21556;55.782;37.528;2023-07-09T12:09:48;99072.88;;;28.35;60.45
35435;BME280;21556;55.782;37.528;2023-07-09T12:12:24;99081.59;;;28.26;60.80
35435;BME280;21556;55.782;37.528;2023-07-09T12:14:51;99081.31;;;27.89;100.00
35435;BME280;21556;55.782;37.528;2023-07-09T12:17:17;99070.41;;;28.18;68.93
35435;BME280;21556;55.782;37.528;2023-07-09T12:19:43;99068.59;;;27.77;73.06
35435;BME280;21556;55.782;37.528;2023-07-09T12:22:21;99074.63;;;27.66;76.78
35435;BME280;21556;55.782;37.528;2023-07-09T12:24:49;99068.59;;;27.77;72.37
35435;BME280;21556;55.782;37.528;2023-07-09T12:27:23;99075.81;;;27.76;74.10
35435;BME280;21556;55.782;37.528;2023-07-09T12:29:54;99073.22;;;27.89;70.58
35435;BME280;21556;55.782;37.528;2023-07-09T12:32:20;99076.47;;;27.94;76.05
35435;BME280;21556;55.782;37.528;2023-07-09T12:34:51;99073.78;;;27.51;72.80
35435;BME280;21556;55.782;37.528;2023-07-09T12:37:18;99066.25;;;27.85;70.16
35435;BME280;21556;55.782;37.528;2023-07-09T12:39:47;99067.44;;;27.81;69.95
35435;BME280;21556;55.782;37.528;2023-07-09T12:42:18;99077.06;;;28.26;64.89
35435;BME280;21556;55.782;37.528;2023-07-09T12:44:45;99073.66;;;27.96;68.18
35435;BME280;21556;55.782;37.528;2023-07-09T12:47:15;99075.63;;;28.21;64.84
35435;BME280;21556;55.782;37.528;2023-07-09T12:49:44;99060.50;;;27.77;65.22
35435;BME280;21556;55.782;37.528;2023-07-09T12:52:19;99067.72;;;27.62;68.71
35435;BME280;21556;55.782;37.528;2023-07-09T12:55:00;99057.72;;;27.93;67.09
35435;BME280;21556;55.782;37.528;2023-07-09T12:57:27;99059.56;;;27.64;69.30
35435;BME280;21556;55.782;37.528;2023-07-09T12:59:56;99062.63;;;27.57;73.63
35435;BME280;21556;55.782;37.528;2023-07-09T13:02:24;99055.69;;;28.23;67.60
35435;BME280;21556;55.782;37.528;2023-07-09T13:05:00;99055.16;;;28.45;68.50
35435;BME280;21556;55.782;37.528;2023-07-09T13:07:38;99059.69;;;28.45;72.78
35435;BME280;21556;55.782;37.528;2023-07-09T13:10:14;99054.50;;;28.27;66.72
35435;BME280;21556;55.782;37.528;2023-07-09T13:12:41;99053.06;;;28.36;63.48
35435;BME280;21556;55.782;37.528;2023-07-09T13:15:26;99051.66;;;28.16;68.37
35435;BME280;21556;55.782;37.528;2023-07-09T13:18:01;99050.88;;;28.14;66.13
35435;BME280;21556;55.782;37.528;2023-07-09T13:20:29;99048.31;;;28.13;67.99
35435;BME280;21556;55.782;37.528;2023-07-09T13:22:56;99039.56;;;28.09;69.76
35435;BME280;21556;55.782;37.528;2023-07-09T13:25:22;99043.19;;;28.22;65.86
35435;BME280;21556;55.782;37.528;2023-07-09T13:27:49;99048.16;;;28.01;70.63
35435;BME280;21556;55.782;37.528;2023-07-09T13:30:15;99045.41;;;27.60;73.98
35435;BME280;21556;55.782;37.528;2023-07-09T13:32:41;99057.22;;;27.72;69.31
35435;BME280;21556;55.782;37.528;2023-07-09T13:35:16;99042.41;;;27.65;67.55
35435;BME280;21556;55.782;37.528;2023-07-09T13:37:44;99040.91;;;27.75;69.41
35435;BME280;21556;55.782;37.528;2023-07-09T13:40:12;99044.91;;;27.68;64.73